createdAt,value
2024-04-23T00:00:55.589Z,1.10
2024-04-23T00:03:22.543Z,1.60
2024-04-23T00:05:50.455Z,1.50
2024-04-23T00:08:17.310Z,1.70
2024-04-23T00:10:50.862Z,1.58
2024-04-23T00:13:20.708Z,1.55
2024-04-23T00:15:47.548Z,1.60
2024-04-23T00:18:15.484Z,1.70
2024-04-23T00:20:43.548Z,1.60
2024-04-23T00:23:10.363Z,2.10
2024-04-23T00:25:38.356Z,1.60
2024-04-23T00:28:06.447Z,1.73
2024-04-23T00:30:33.420Z,1.90
2024-04-23T00:33:00.450Z,1.50
2024-04-23T00:35:28.451Z,1.58
2024-04-23T00:37:55.343Z,1.67
2024-04-23T00:40:23.276Z,1.42
2024-04-23T00:42:59.315Z,1.60
2024-04-23T00:45:29.851Z,1.50
2024-04-23T00:47:56.817Z,1.40
2024-04-23T00:50:23.674Z,1.30
2024-04-23T00:52:51.643Z,1.70
2024-04-23T00:55:18.560Z,1.55
2024-04-23T00:57:46.479Z,1.50
2024-04-23T01:00:13.384Z,1.50
2024-04-23T01:02:40.441Z,1.60
2024-04-23T01:05:08.495Z,1.38
2024-04-23T01:07:35.369Z,1.55
2024-04-23T01:10:03.347Z,1.50
2024-04-23T01:12:36.646Z,1.63
2024-04-23T01:15:09.264Z,1.52
2024-04-23T01:17:36.625Z,1.65
2024-04-23T01:20:05.500Z,1.63
2024-04-23T01:22:36.801Z,1.17
2024-04-23T01:25:14.822Z,1.55
2024-04-23T01:27:43.726Z,1.42
2024-04-23T01:30:12.721Z,1.45
2024-04-23T01:32:40.539Z,1.55
2024-04-23T01:35:09.006Z,1.50
2024-04-23T01:37:37.675Z,1.42
2024-04-23T01:40:04.768Z,1.30
2024-04-23T01:42:32.193Z,1.30
2024-04-23T01:45:01.915Z,1.30
2024-04-23T01:47:28.833Z,1.30
2024-04-23T01:49:57.150Z,1.30
2024-04-23T01:52:24.008Z,1.40
2024-04-23T01:54:50.938Z,1.33
2024-04-23T01:57:19.465Z,1.40
2024-04-23T01:59:48.688Z,1.25
2024-04-23T02:02:20.449Z,1.10
2024-04-23T02:04:47.477Z,1.20
2024-04-23T02:07:16.392Z,1.30
2024-04-23T02:09:43.497Z,1.23
2024-04-23T02:12:21.036Z,1.10
2024-04-23T02:14:49.101Z,1.02
2024-04-23T02:17:17.050Z,1.20
2024-04-23T02:19:44.281Z,1.20
2024-04-23T02:22:11.175Z,1.40
2024-04-23T02:24:39.098Z,1.20
2024-04-23T02:27:07.126Z,1.30
2024-04-23T02:29:33.980Z,1.50
2024-04-23T02:32:05.357Z,1.20
2024-04-23T02:34:32.260Z,1.20
2024-04-23T02:36:59.135Z,1.33
2024-04-23T02:39:27.029Z,1.58
2024-04-23T02:41:54.612Z,1.40
2024-04-23T02:44:22.525Z,1.33
2024-04-23T02:46:49.388Z,1.30
2024-04-23T02:49:16.257Z,1.25
2024-04-23T02:51:52.099Z,1.13
2024-04-23T02:54:19.144Z,1.10
2024-04-23T02:56:47.036Z,1.20
2024-04-23T02:59:13.858Z,0.98
2024-04-23T03:01:40.776Z,1.17
2024-04-23T03:04:08.698Z,1.33
2024-04-23T03:06:35.532Z,1.13
2024-04-23T03:09:02.435Z,1.20
2024-04-23T03:11:30.343Z,1.25
2024-04-23T03:13:57.435Z,1.20
2024-04-23T03:16:31.729Z,1.20
2024-04-23T03:18:58.605Z,1.05
2024-04-23T03:21:25.458Z,1.30
2024-04-23T03:23:53.333Z,1.20
2024-04-23T03:26:21.268Z,1.02
2024-04-23T03:28:48.120Z,1.00
2024-04-23T03:31:16.006Z,0.90
2024-04-23T03:33:42.842Z,1.05
2024-04-23T03:36:09.765Z,1.00
2024-04-23T03:38:37.669Z,1.00
2024-04-23T03:41:05.664Z,1.05
2024-04-23T03:43:33.615Z,1.00
2024-04-23T03:46:00.465Z,1.00
2024-04-23T03:48:27.333Z,1.00
2024-04-23T03:50:55.243Z,0.90
2024-04-23T03:53:22.062Z,1.00
2024-04-23T03:55:48.936Z,0.90
2024-04-23T03:58:16.915Z,0.90
2024-04-23T04:00:43.777Z,0.85
2024-04-23T04:03:10.645Z,0.90
2024-04-23T04:05:38.578Z,1.05
2024-04-23T04:08:05.763Z,0.93
2024-04-23T04:10:33.763Z,1.00
2024-04-23T04:13:12.839Z,1.00
2024-04-23T04:15:54.479Z,1.10
2024-04-23T04:18:21.484Z,1.23
2024-04-23T04:20:48.385Z,1.30
2024-04-23T04:23:16.268Z,1.17
2024-04-23T04:25:43.246Z,1.30
2024-04-23T04:28:12.217Z,1.70
2024-04-23T04:30:39.075Z,2.00
2024-04-23T04:33:06.059Z,2.10
2024-04-23T04:35:33.991Z,2.63
2024-04-23T04:38:01.984Z,2.83
2024-04-23T04:40:32.461Z,2.67
2024-04-23T04:42:59.317Z,2.40
2024-04-23T04:45:27.199Z,2.70
2024-04-23T04:47:54.164Z,2.42
2024-04-23T04:50:21.124Z,2.30
2024-04-23T04:52:49.047Z,2.10
2024-04-23T04:55:15.900Z,1.95
2024-04-23T04:57:42.764Z,2.10
2024-04-23T05:00:10.824Z,2.03
2024-04-23T05:02:37.734Z,1.60
2024-04-23T05:05:05.744Z,1.77
2024-04-23T05:07:32.647Z,1.70
2024-04-23T05:10:00.682Z,1.50
2024-04-23T05:12:28.618Z,1.80
2024-04-23T05:14:55.449Z,1.60
2024-04-23T05:17:23.460Z,1.60
2024-04-23T05:19:50.344Z,1.63
2024-04-23T05:22:17.304Z,2.10
2024-04-23T05:24:45.233Z,2.40
2024-04-23T05:27:12.091Z,2.63
2024-04-23T05:29:39.982Z,2.65
2024-04-23T05:32:06.940Z,2.22
2024-04-23T05:34:33.820Z,3.00
2024-04-23T05:37:01.742Z,2.53
2024-04-23T05:39:28.566Z,1.80
2024-04-23T05:42:03.555Z,1.40
2024-04-23T05:44:30.522Z,1.38
2024-04-23T05:46:57.420Z,1.40
2024-04-23T05:49:43.928Z,1.13
2024-04-23T05:52:30.698Z,1.00
2024-04-23T05:55:17.672Z,1.60
2024-04-23T05:57:44.503Z,1.25
2024-04-23T06:00:11.643Z,0.90
2024-04-23T06:02:39.496Z,1.00
2024-04-23T06:05:06.596Z,0.90
2024-04-23T06:07:34.568Z,0.90
2024-04-23T06:10:02.469Z,0.77
2024-04-23T06:12:31.358Z,0.63
2024-04-23T06:14:58.208Z,0.70
2024-04-23T06:17:35.911Z,0.70
2024-04-23T06:20:10.126Z,0.75
2024-04-23T06:22:37.686Z,0.70
2024-04-23T06:25:05.447Z,0.43
2024-04-23T06:27:33.657Z,0.68
2024-04-23T06:30:10.663Z,0.60
2024-04-23T06:32:39.541Z,0.65
2024-04-23T06:35:07.089Z,0.80
2024-04-23T06:37:34.398Z,0.80
2024-04-23T06:40:02.318Z,0.50
2024-04-23T06:42:29.167Z,0.60
2024-04-23T06:44:57.065Z,0.75
2024-04-23T06:47:23.943Z,0.70
2024-04-23T06:49:50.850Z,0.80
2024-04-23T06:52:18.921Z,0.70
2024-04-23T06:54:46.779Z,0.80
2024-04-23T06:57:15.271Z,0.77
2024-04-23T06:59:42.116Z,0.87
2024-04-23T07:02:10.106Z,0.70
2024-04-23T07:04:36.994Z,0.67
2024-04-23T07:07:04.966Z,1.83
2024-04-23T07:09:31.787Z,1.13
2024-04-23T07:11:58.631Z,0.70
2024-04-23T12:04:10.317Z,1.98
2024-04-23T12:06:38.885Z,2.08
2024-04-23T12:09:07.085Z,2.58
2024-04-23T12:11:34.518Z,2.70
2024-04-23T12:14:01.435Z,2.70
2024-04-23T12:16:29.756Z,2.50
2024-04-23T12:18:56.603Z,2.67
2024-04-23T12:21:26.560Z,2.45
2024-04-23T12:23:54.557Z,2.42
2024-04-23T12:26:21.422Z,2.50
2024-04-23T12:28:51.832Z,2.40
2024-04-23T12:31:18.764Z,2.30
2024-04-23T12:33:46.773Z,2.00
2024-04-23T12:36:13.659Z,2.50
2024-04-23T12:38:48.148Z,2.42
2024-04-23T12:41:19.628Z,2.60
2024-04-23T12:43:47.006Z,2.53
2024-04-23T12:46:14.801Z,2.70
2024-04-23T12:48:43.213Z,2.38
2024-04-23T12:51:10.947Z,2.78
2024-04-23T12:53:39.267Z,2.67
2024-04-23T12:56:07.428Z,2.50
2024-04-23T12:58:34.376Z,2.30
2024-04-23T13:01:02.493Z,2.35
2024-04-23T13:03:29.422Z,2.30
2024-04-23T13:05:56.371Z,2.47
2024-04-23T13:08:24.295Z,2.40
2024-04-23T13:10:51.184Z,2.40
2024-04-23T13:13:19.071Z,2.30
2024-04-23T13:15:45.996Z,2.60
2024-04-23T13:18:12.888Z,2.60
2024-04-23T13:20:40.902Z,2.30
2024-04-23T13:23:08.066Z,2.50
2024-04-23T13:25:35.071Z,2.75
2024-04-23T13:28:06.058Z,2.60
2024-04-23T13:30:32.946Z,2.50
2024-04-23T13:33:00.987Z,2.70
2024-04-23T13:35:27.919Z,2.65
2024-04-23T13:37:56.572Z,2.70
2024-04-23T13:40:23.474Z,2.75
2024-04-23T13:42:51.220Z,2.70
2024-04-23T13:45:19.130Z,3.10
2024-04-23T13:47:45.994Z,2.90
2024-04-23T13:50:12.864Z,2.40
2024-04-23T13:52:41.814Z,2.58
2024-04-23T13:55:09.206Z,2.63
2024-04-23T13:57:38.211Z,2.47
2024-04-23T14:00:05.642Z,2.60
2024-04-23T14:02:32.942Z,2.40
2024-04-23T14:05:07.159Z,2.35
2024-04-23T14:07:36.728Z,2.65
2024-04-23T14:10:04.863Z,2.42
2024-04-23T14:12:32.748Z,2.50
2024-04-23T14:14:59.599Z,2.60
2024-04-23T14:17:27.534Z,2.40
2024-04-23T14:19:54.393Z,2.45
2024-04-23T14:22:22.334Z,2.38
2024-04-23T14:24:49.176Z,2.10
2024-04-23T14:27:16.018Z,2.30
2024-04-23T14:29:43.934Z,2.43
2024-04-23T14:32:10.805Z,2.53
2024-04-23T14:34:37.733Z,2.65
2024-04-23T14:37:08.704Z,2.42
2024-04-23T14:39:35.535Z,2.40
2024-04-23T14:42:03.857Z,2.58
2024-04-23T14:44:31.371Z,2.15
2024-04-23T14:46:58.882Z,2.42
2024-04-23T14:49:28.817Z,2.25
2024-04-23T14:51:56.904Z,2.10
2024-04-23T14:54:26.819Z,2.05
2024-04-23T14:56:55.753Z,2.47
2024-04-23T14:59:23.731Z,2.20
2024-04-23T15:01:51.754Z,2.17
2024-04-23T17:26:52.139Z,2.10
2024-04-23T19:49:09.125Z,2.00
